createdAt,value
2022-08-28T00:01:02.686Z,8.13
2022-08-28T00:08:04.827Z,7.90
2022-08-28T00:15:12.944Z,7.70
2022-08-28T00:22:15.226Z,7.70
2022-08-28T00:29:17.909Z,7.18
2022-08-28T00:36:20.023Z,7.65
2022-08-28T00:43:34.530Z,7.32
2022-08-28T00:51:00.530Z,7.40
2022-08-28T00:58:03.231Z,7.95
2022-08-28T01:05:09.179Z,8.02
2022-08-28T01:12:15.611Z,8.45
2022-08-28T01:19:22.447Z,7.30
2022-08-28T01:26:27.083Z,8.00
2022-08-28T01:33:29.089Z,7.40
2022-08-28T01:40:38.796Z,7.15
2022-08-28T01:47:43.742Z,7.95
2022-08-28T01:54:46.441Z,8.38
2022-08-28T02:01:49.030Z,8.10
2022-08-28T02:08:55.623Z,8.43
2022-08-28T02:15:57.694Z,8.35
2022-08-28T02:23:00.325Z,9.00
2022-08-28T02:30:03.387Z,9.05
2022-08-28T02:37:08.217Z,9.38
2022-08-28T02:44:10.446Z,8.23
2022-08-28T02:51:13.954Z,9.80
2022-08-28T02:58:16.018Z,9.23
2022-08-28T03:05:21.357Z,9.80
2022-08-28T03:12:24.683Z,8.70
2022-08-28T03:19:26.671Z,8.50
2022-08-28T03:26:30.069Z,8.30
2022-08-28T03:33:32.917Z,9.13
2022-08-28T03:40:39.612Z,8.43
2022-08-28T03:47:43.193Z,9.18
2022-08-28T03:54:45.773Z,8.00
2022-08-28T04:01:48.245Z,8.38
2022-08-28T04:08:51.340Z,9.00
2022-08-28T04:16:02.887Z,8.77
2022-08-28T04:23:10.329Z,8.98
2022-08-28T04:30:12.803Z,10.57
2022-08-28T04:37:16.191Z,10.57
2022-08-28T04:44:18.270Z,10.48
2022-08-28T04:51:20.786Z,11.88
2022-08-28T04:58:24.263Z,11.82
2022-08-28T05:05:26.741Z,12.40
2022-08-28T05:12:28.762Z,11.48
2022-08-28T05:19:32.971Z,11.13
2022-08-28T05:26:41.159Z,11.32
2022-08-28T05:33:48.529Z,12.73
2022-08-28T05:40:50.570Z,13.20
2022-08-28T05:47:53.021Z,12.50
2022-08-28T05:54:55.030Z,12.88
2022-08-28T06:02:00.941Z,11.75
2022-08-28T06:09:29.753Z,10.98
2022-08-28T06:16:32.835Z,11.40
2022-08-28T06:23:35.212Z,12.10
2022-08-28T06:30:40.197Z,10.50
2022-08-28T06:37:44.746Z,11.55
2022-08-28T06:44:46.804Z,10.30
2022-08-28T06:51:49.610Z,10.52
2022-08-28T06:58:51.863Z,8.98
2022-08-28T07:05:58.486Z,8.80
2022-08-28T07:13:00.752Z,8.68
2022-08-28T07:20:04.809Z,6.90
2022-08-28T07:27:06.926Z,6.95
2022-08-28T07:34:10.691Z,5.90
2022-08-28T07:41:25.089Z,5.53
2022-08-28T07:48:27.415Z,5.75
2022-08-28T07:55:31.694Z,5.60
2022-08-28T08:02:34.590Z,5.30
2022-08-28T08:09:38.528Z,4.93
2022-08-28T08:16:44.648Z,5.20
2022-08-28T08:23:47.321Z,5.15
2022-08-28T08:30:49.420Z,4.80
2022-08-28T08:37:52.015Z,4.82
2022-08-28T08:44:55.969Z,4.47
2022-08-28T08:52:16.416Z,4.40
2022-08-28T08:59:21.727Z,4.60
2022-08-28T09:06:55.675Z,3.83
2022-08-28T09:14:12.941Z,4.43
2022-08-28T09:21:29.195Z,4.43
2022-08-28T09:28:34.627Z,3.97
2022-08-28T09:35:37.828Z,4.22
2022-08-28T09:42:58.185Z,4.45
2022-08-28T09:50:20.541Z,3.78
2022-08-28T09:57:22.552Z,4.03
2022-08-28T10:04:51.032Z,3.45
2022-08-28T10:12:05.234Z,3.28
2022-08-28T10:19:17.531Z,3.85
2022-08-28T10:26:48.603Z,3.50
2022-08-28T10:34:24.521Z,4.28
2022-08-28T10:41:37.076Z,3.72
2022-08-28T10:48:44.027Z,3.80
2022-08-28T10:56:07.723Z,4.20
2022-08-28T11:03:33.970Z,4.28
2022-08-28T11:10:52.102Z,4.47
2022-08-28T11:18:18.124Z,3.80
2022-08-28T11:25:33.083Z,4.57
2022-08-28T11:32:35.051Z,4.25
2022-08-28T11:39:37.141Z,3.83
2022-08-28T11:46:40.100Z,4.53
2022-08-28T11:54:00.415Z,4.72
2022-08-28T12:01:07.917Z,3.90
2022-08-28T12:08:11.203Z,4.57
2022-08-28T12:15:28.508Z,4.10
2022-08-28T12:22:53.347Z,4.75
2022-08-28T12:29:57.985Z,4.30
2022-08-28T12:37:02.312Z,4.40
2022-08-28T12:44:05.082Z,4.32
2022-08-28T12:51:20.331Z,4.25
2022-08-28T12:58:34.263Z,4.45
2022-08-28T13:05:40.582Z,4.35
2022-08-28T13:12:55.985Z,4.60
2022-08-28T13:20:05.684Z,4.30
2022-08-28T13:27:16.793Z,4.35
2022-08-28T13:34:19.770Z,4.47
2022-08-28T13:41:22.055Z,4.75
2022-08-28T13:48:26.084Z,4.22
2022-08-28T13:55:28.234Z,5.18
2022-08-28T14:02:49.185Z,4.65
2022-08-28T14:09:56.016Z,4.75
2022-08-28T14:24:01.553Z,4.50
2022-08-28T14:31:11.057Z,4.43
2022-08-28T14:38:14.774Z,4.50
2022-08-28T14:45:16.942Z,4.57
2022-08-28T14:52:19.787Z,4.60
2022-08-28T14:59:27.258Z,4.75
2022-08-28T15:06:29.895Z,4.75
2022-08-28T15:13:31.913Z,4.50
2022-08-28T15:20:38.968Z,4.63
2022-08-28T15:27:41.095Z,4.78
2022-08-28T15:34:44.840Z,4.47
2022-08-28T15:41:47.215Z,4.78
2022-08-28T15:48:50.489Z,5.20
2022-08-28T16:03:01.316Z,4.50
2022-08-28T16:10:07.348Z,4.75
2022-08-28T16:17:11.003Z,5.85
2022-08-28T16:24:13.582Z,5.68
2022-08-28T16:31:20.437Z,5.75
2022-08-28T16:38:23.115Z,5.65
2022-08-28T16:45:28.343Z,5.90
2022-08-28T16:52:30.524Z,5.53
2022-08-28T16:59:32.614Z,5.22
2022-08-28T17:06:35.207Z,6.75
2022-08-28T17:13:37.816Z,6.13
2022-08-28T17:20:58.348Z,7.70
2022-08-28T17:28:01.739Z,6.45
2022-08-28T17:35:06.021Z,6.30
2022-08-28T17:42:08.284Z,6.93
2022-08-28T17:49:10.914Z,8.13
2022-08-28T17:56:13.607Z,7.63
2022-08-28T18:03:16.501Z,8.45
2022-08-28T18:10:19.381Z,8.60
2022-08-28T18:17:22.086Z,7.05
2022-08-28T18:24:27.443Z,7.40
2022-08-28T18:31:30.596Z,7.40
2022-08-28T18:38:35.733Z,6.97
2022-08-28T18:45:56.632Z,8.85
2022-08-28T18:53:00.639Z,7.63
2022-08-28T19:00:03.384Z,7.13
2022-08-28T19:07:07.096Z,7.43
2022-08-28T19:14:09.518Z,8.32
2022-08-28T19:21:16.480Z,8.50
2022-08-28T19:28:19.031Z,9.00
2022-08-28T19:35:25.298Z,9.05
2022-08-28T19:42:30.346Z,8.35
2022-08-28T19:49:33.508Z,9.82
2022-08-28T19:56:39.892Z,8.93
2022-08-28T20:03:42.644Z,10.05
2022-08-28T20:10:46.644Z,9.18
2022-08-28T20:17:51.649Z,9.35
2022-08-28T20:24:54.133Z,8.23
2022-08-28T20:31:56.263Z,8.20
2022-08-28T20:38:58.601Z,9.18
2022-08-28T20:46:05.044Z,9.63
2022-08-28T20:53:07.202Z,10.50
2022-08-28T21:00:11.146Z,11.68
2022-08-28T21:07:14.952Z,12.05
2022-08-28T21:14:17.344Z,12.05
2022-08-28T21:21:19.426Z,11.75
2022-08-28T21:28:23.828Z,11.77
2022-08-28T21:35:26.326Z,10.52
2022-08-28T21:42:28.817Z,11.45
2022-08-28T21:49:31.083Z,9.93
2022-08-28T21:56:33.158Z,9.38
2022-08-28T22:03:35.355Z,9.13
2022-08-28T22:10:40.448Z,8.50
2022-08-28T22:17:43.238Z,8.05
2022-08-28T22:24:45.397Z,8.45
2022-08-28T22:31:47.647Z,9.60
2022-08-28T22:38:53.359Z,8.50
2022-08-28T22:45:55.799Z,8.35
2022-08-28T22:52:57.914Z,7.53
2022-08-28T23:00:03.241Z,8.10
2022-08-28T23:07:06.332Z,8.27
2022-08-28T23:14:08.411Z,8.40
2022-08-28T23:21:10.500Z,7.78
2022-08-28T23:28:15.042Z,8.40
2022-08-28T23:35:17.971Z,8.50
2022-08-28T23:42:20.003Z,8.38
2022-08-28T23:49:26.706Z,9.02
2022-08-28T23:56:29.012Z,9.85
